Time;durP1;ratioP1;P1;durP2;ratioP2;P2;SDS_P1;SDS_P2;PMS_P1;PMS_P2;Temp;Humidity;BMP_temperature;BMP_pressure;BME280_temperature;BME280_humidity;BME280_pressure;Samples;Min_cycle;Max_cycle;Signal;HPM_P1;HPM_P2
2022/10/03 00:01:21;;;;;;;10.50;5.95;;;;;;;;;;5059336;28;20239;-61
2022/10/03 00:04:39;;;;;;;13.82;6.45;;;;;;;;;;5058340;28;20281;-61
2022/10/03 00:07:29;;;;;;;13.35;5.65;;;;;;;;;;5041172;28;20287;-61
2022/10/03 00:10:16;;;;;;;12.00;6.25;;;;;;;;;;5057801;28;20238;-61
2022/10/03 00:12:51;;;;;;;12.80;6.80;;;;;;;;;;5057342;28;20265;-61
2022/10/03 00:15:24;;;;;;;13.50;6.55;;;;;;;;;;5058152;28;20245;-62
2022/10/03 00:18:17;;;;;;;16.23;6.72;;;;;;;;;;5058262;28;20640;-62
2022/10/03 00:21:00;;;;;;;9.45;5.15;;;;;;;;;;5057203;28;20207;-61
2022/10/03 00:23:44;;;;;;;8.10;5.50;;;;;;;;;;5057276;28;20231;-61
2022/10/03 00:26:39;;;;;;;7.68;5.05;;;;;;;;;;5057309;28;20192;-61
2022/10/03 00:29:20;;;;;;;10.73;5.75;;;;;;;;;;5057786;28;20184;-61
2022/10/03 00:32:13;;;;;;;11.07;4.78;;;;;;;;;;5057851;28;20211;-61
2022/10/03 00:34:49;;;;;;;7.00;4.88;;;;;;;;;;5056743;28;20556;-61
2022/10/03 00:37:25;;;;;;;12.50;5.50;;;;;;;;;;5057777;28;20657;-61
2022/10/03 00:40:03;;;;;;;9.55;5.30;;;;;;;;;;5057610;28;20207;-61
2022/10/03 00:43:15;;;;;;;12.75;5.43;;;;;;;;;;5057786;28;20207;-61
2022/10/03 00:45:48;;;;;;;11.50;5.28;;;;;;;;;;5056485;28;20220;-61
2022/10/03 00:48:53;;;;;;;10.13;5.28;;;;;;;;;;5058030;28;20332;-61
2022/10/03 00:51:57;;;;;;;9.52;5.20;;;;;;;;;;5057719;28;20176;-61
2022/10/03 00:54:32;;;;;;;14.57;5.18;;;;;;;;;;5057643;28;20211;-61
2022/10/03 00:57:40;;;;;;;10.70;5.40;;;;;;;;;;5057064;28;20547;-61
2022/10/03 01:00:29;;;;;;;11.77;5.90;;;;;;;;;;5046837;28;20654;-62
2022/10/03 01:03:31;;;;;;;7.78;5.43;;;;;;;;;;5057335;28;20200;-62
2022/10/03 01:06:18;;;;;;;12.55;5.50;;;;;;;;;;5057066;28;20207;-61
2022/10/03 01:09:05;;;;;;;10.10;5.55;;;;;;;;;;5057446;28;20212;-61
2022/10/03 01:11:59;;;;;;;11.43;5.18;;;;;;;;;;5056690;28;20642;-61
2022/10/03 01:14:48;;;;;;;7.20;4.82;;;;;;;;;;5055954;28;20232;-61
2022/10/03 01:17:33;;;;;;;10.98;5.55;;;;;;;;;;5056110;28;20265;-60
2022/10/03 01:20:22;;;;;;;9.43;5.47;;;;;;;;;;5057188;28;20196;-61
2022/10/03 01:23:01;;;;;;;9.35;5.13;;;;;;;;;;5056385;28;20172;-61
2022/10/03 01:25:37;;;;;;;13.05;6.32;;;;;;;;;;5057089;28;20208;-61
2022/10/03 01:31:17;;;;;;;8.15;5.38;;;;;;;;;;5056331;28;20634;-62
2022/10/03 01:34:08;;;;;;;11.70;5.65;;;;;;;;;;5056686;28;20224;-61
2022/10/03 01:37:01;;;;;;;10.27;5.13;;;;;;;;;;5055732;28;20226;-61
2022/10/03 01:39:56;;;;;;;8.85;5.30;;;;;;;;;;5055921;28;20238;-61
2022/10/03 01:42:37;;;;;;;7.85;4.70;;;;;;;;;;5056768;28;20180;-61
2022/10/03 01:45:19;;;;;;;8.77;5.75;;;;;;;;;;5055543;28;20208;-61
2022/10/03 01:47:56;;;;;;;9.23;5.30;;;;;;;;;;5055880;28;20588;-61
2022/10/03 01:50:51;;;;;;;12.20;5.63;;;;;;;;;;5056316;28;20594;-61
2022/10/03 01:53:43;;;;;;;11.02;5.75;;;;;;;;;;5056182;28;20266;-61
2022/10/03 01:56:33;;;;;;;10.50;5.75;;;;;;;;;;5056217;28;20211;-61
2022/10/03 01:59:21;;;;;;;11.25;5.00;;;;;;;;;;5055267;28;20626;-61
2022/10/03 02:02:06;;;;;;;12.60;5.28;;;;;;;;;;5055544;28;20534;-61
2022/10/03 02:04:33;;;;;;;11.75;4.82;;;;;;;;;;5055809;28;20582;-61
2022/10/03 02:07:09;;;;;;;11.38;4.45;;;;;;;;;;5056000;28;20192;-61
2022/10/03 02:09:49;;;;;;;11.65;5.18;;;;;;;;;;5054483;28;20570;-61
2022/10/03 02:12:40;;;;;;;11.18;4.90;;;;;;;;;;5039084;28;20538;-62
2022/10/03 02:15:27;;;;;;;8.10;4.40;;;;;;;;;;5054942;28;20227;-61
2022/10/03 02:17:57;;;;;;;10.02;4.53;;;;;;;;;;5055078;28;20218;-61
2022/10/03 02:20:39;;;;;;;8.50;4.25;;;;;;;;;;5054957;28;20287;-61
2022/10/03 02:23:25;;;;;;;9.32;4.50;;;;;;;;;;5055032;28;20543;-61
2022/10/03 02:26:16;;;;;;;8.38;3.92;;;;;;;;;;5055831;28;20207;-61
2022/10/03 02:28:59;;;;;;;9.05;4.68;;;;;;;;;;5055704;28;20192;-61
2022/10/03 02:31:55;;;;;;;6.38;3.83;;;;;;;;;;5055663;28;20238;-61
2022/10/03 02:34:32;;;;;;;12.32;4.50;;;;;;;;;;5055565;28;20246;-62
2022/10/03 02:37:20;;;;;;;8.20;4.82;;;;;;;;;;5055282;28;20188;-61
2022/10/03 02:40:21;;;;;;;7.85;4.93;;;;;;;;;;5055751;28;20705;-61
2022/10/03 02:43:22;;;;;;;8.68;5.07;;;;;;;;;;5055503;28;20277;-61
2022/10/03 02:46:13;;;;;;;9.95;5.20;;;;;;;;;;5055203;28;20206;-61
2022/10/03 02:49:17;;;;;;;9.55;4.78;;;;;;;;;;5055080;28;20199;-61
2022/10/03 02:52:09;;;;;;;9.18;5.00;;;;;;;;;;5056111;28;20196;-61
2022/10/03 02:54:52;;;;;;;11.82;5.75;;;;;;;;;;5055196;28;20319;-61
2022/10/03 02:57:38;;;;;;;8.68;5.05;;;;;;;;;;5054369;28;20312;-61
2022/10/03 03:00:09;;;;;;;16.67;4.90;;;;;;;;;;5052168;28;20192;-61
2022/10/03 03:02:53;;;;;;;9.40;5.88;;;;;;;;;;5033619;28;20583;-62
2022/10/03 03:05:26;;;;;;;14.65;5.85;;;;;;;;;;5032769;28;20259;-62
2022/10/03 03:08:17;;;;;;;19.30;6.07;;;;;;;;;;5034973;28;20620;-61
2022/10/03 03:11:29;;;;;;;12.52;6.30;;;;;;;;;;5033982;28;20229;-61
2022/10/03 03:14:21;;;;;;;9.90;5.57;;;;;;;;;;5024844;28;20270;-62
2022/10/03 03:16:53;;;;;;;14.10;6.35;;;;;;;;;;5035875;28;20240;-61
2022/10/03 03:19:47;;;;;;;17.05;6.88;;;;;;;;;;5034903;28;20185;-61
2022/10/03 03:22:26;;;;;;;13.35;6.45;;;;;;;;;;5034823;28;20205;-61
2022/10/03 03:25:18;;;;;;;14.98;7.22;;;;;;;;;;5034877;28;20260;-61
2022/10/03 03:27:59;;;;;;;12.35;7.28;;;;;;;;;;5035248;28;20279;-61
2022/10/03 03:30:47;;;;;;;12.20;7.30;;;;;;;;;;5035876;28;20188;-61
2022/10/03 03:33:33;;;;;;;15.43;7.55;;;;;;;;;;5033908;28;20267;-61
2022/10/03 03:36:41;;;;;;;14.20;7.10;;;;;;;;;;5034516;28;20217;-61
2022/10/03 03:39:26;;;;;;;13.30;7.88;;;;;;;;;;5032747;28;20220;-61
2022/10/03 03:42:21;;;;;;;14.43;7.97;;;;;;;;;;5034577;28;20212;-61
2022/10/03 03:44:54;;;;;;;15.32;7.82;;;;;;;;;;5034645;28;20594;-61
2022/10/03 03:47:42;;;;;;;13.13;6.88;;;;;;;;;;5034711;28;20205;-61
2022/10/03 03:50:20;;;;;;;16.45;7.00;;;;;;;;;;5034469;28;20758;-61
2022/10/03 03:53:04;;;;;;;13.75;6.63;;;;;;;;;;5034456;28;20188;-61
2022/10/03 03:55:59;;;;;;;11.63;6.63;;;;;;;;;;5034767;28;20220;-62
2022/10/03 03:58:56;;;;;;;10.90;7.10;;;;;;;;;;5036657;28;20797;-62
2022/10/03 04:01:42;;;;;;;7.45;6.35;;;;;;;;;;5052664;28;20289;-61
2022/10/03 04:04:28;;;;;;;14.60;6.72;;;;;;;;;;5053240;28;20242;-62
2022/10/03 04:07:12;;;;;;;11.85;6.82;;;;;;;;;;5053583;28;20624;-61
2022/10/03 04:09:50;;;;;;;13.27;6.25;;;;;;;;;;5053289;28;20553;-61
2022/10/03 04:12:28;;;;;;;11.60;6.63;;;;;;;;;;5053090;28;20230;-61
2022/10/03 04:15:32;;;;;;;13.02;6.97;;;;;;;;;;5052996;28;20251;-62
2022/10/03 04:18:56;;;;;;;11.43;6.03;;;;;;;;;;5053526;28;20234;-63
2022/10/03 04:21:26;;;;;;;9.57;6.00;;;;;;;;;;5035374;28;20338;-61
2022/10/03 04:24:23;;;;;;;11.30;6.50;;;;;;;;;;5047344;28;20308;-63
2022/10/03 04:27:02;;;;;;;12.05;6.38;;;;;;;;;;5032537;28;20240;-62
2022/10/03 04:30:03;;;;;;;12.15;6.07;;;;;;;;;;5032735;28;20228;-62
2022/10/03 04:32:45;;;;;;;15.00;6.68;;;;;;;;;;5034530;28;20220;-62
2022/10/03 04:35:45;;;;;;;8.82;6.78;;;;;;;;;;5036741;28;20231;-62
2022/10/03 04:38:43;;;;;;;13.23;6.35;;;;;;;;;;5036057;28;20593;-62
2022/10/03 04:41:38;;;;;;;11.73;7.00;;;;;;;;;;5035626;28;20270;-62
2022/10/03 04:44:34;;;;;;;12.60;6.10;;;;;;;;;;5035483;28;20216;-61
2022/10/03 04:47:32;;;;;;;15.15;6.70;;;;;;;;;;5035317;28;20228;-61
2022/10/03 04:50:13;;;;;;;12.82;6.30;;;;;;;;;;5037229;28;20236;-62
2022/10/03 04:52:51;;;;;;;9.82;6.30;;;;;;;;;;5070783;28;20219;-62
2022/10/03 04:55:37;;;;;;;14.48;7.03;;;;;;;;;;5054191;28;20227;-61
2022/10/03 04:58:13;;;;;;;13.40;6.57;;;;;;;;;;5055207;28;20298;-61
2022/10/03 05:01:01;;;;;;;11.80;7.50;;;;;;;;;;5055980;28;20561;-62
2022/10/03 05:03:51;;;;;;;13.50;6.95;;;;;;;;;;5055210;28;20238;-61
2022/10/03 05:06:22;;;;;;;15.50;7.90;;;;;;;;;;5056107;28;21257;-61
2022/10/03 05:09:11;;;;;;;13.05;7.63;;;;;;;;;;5055276;28;20228;-62
2022/10/03 05:11:53;;;;;;;11.48;7.10;;;;;;;;;;5055525;28;20237;-61
2022/10/03 05:14:41;;;;;;;10.68;6.70;;;;;;;;;;5057258;28;20202;-62
2022/10/03 05:17:18;;;;;;;11.90;6.50;;;;;;;;;;5054281;28;20188;-61
2022/10/03 05:19:53;;;;;;;9.13;6.50;;;;;;;;;;5052688;28;20650;-61
2022/10/03 05:22:48;;;;;;;17.92;7.30;;;;;;;;;;5054735;28;20518;-61
2022/10/03 05:25:21;;;;;;;11.25;7.07;;;;;;;;;;5053772;28;20242;-61
2022/10/03 05:28:15;;;;;;;12.27;7.32;;;;;;;;;;5053123;28;20199;-61
2022/10/03 05:30:52;;;;;;;14.98;7.70;;;;;;;;;;5047824;28;20231;-62
2022/10/03 05:33:32;;;;;;;18.08;7.53;;;;;;;;;;5054740;28;20668;-61
2022/10/03 05:36:10;;;;;;;13.90;7.10;;;;;;;;;;5055928;28;20269;-61
2022/10/03 05:38:59;;;;;;;14.40;6.55;;;;;;;;;;5056972;28;20269;-61
2022/10/03 05:41:37;;;;;;;17.00;7.13;;;;;;;;;;5056832;28;20181;-61
2022/10/03 05:44:09;;;;;;;14.60;8.32;;;;;;;;;;5055478;28;20203;-61
2022/10/03 05:46:54;;;;;;;16.88;7.25;;;;;;;;;;5055635;28;20592;-61
2022/10/03 05:49:38;;;;;;;15.63;7.93;;;;;;;;;;5056482;28;20596;-61
2022/10/03 05:52:29;;;;;;;21.38;6.90;;;;;;;;;;5055720;28;20635;-61
2022/10/03 05:55:34;;;;;;;12.15;6.57;;;;;;;;;;5055590;28;20220;-61
2022/10/03 05:58:22;;;;;;;11.90;6.13;;;;;;;;;;5056170;28;20223;-61
2022/10/03 06:01:20;;;;;;;8.77;6.13;;;;;;;;;;5056240;28;20506;-61
2022/10/03 06:04:01;;;;;;;13.40;6.72;;;;;;;;;;5056062;28;20291;-61
2022/10/03 06:06:50;;;;;;;10.10;6.25;;;;;;;;;;5039277;28;20211;-61
2022/10/03 06:09:41;;;;;;;12.32;6.55;;;;;;;;;;5056121;28;20270;-61
2022/10/03 06:12:13;;;;;;;9.02;6.93;;;;;;;;;;5056481;28;20270;-61
2022/10/03 06:15:02;;;;;;;11.77;6.28;;;;;;;;;;5055917;28;20204;-61
2022/10/03 06:17:42;;;;;;;10.15;6.10;;;;;;;;;;5055872;28;20195;-61
2022/10/03 06:20:35;;;;;;;12.35;6.00;;;;;;;;;;5055402;28;20242;-61
2022/10/03 06:23:08;;;;;;;7.63;5.72;;;;;;;;;;5054979;28;20211;-61
2022/10/03 06:25:59;;;;;;;9.55;6.38;;;;;;;;;;5055921;28;20231;-61
2022/10/03 06:28:40;;;;;;;13.00;6.10;;;;;;;;;;5055358;28;20200;-61
2022/10/03 06:31:44;;;;;;;9.73;5.53;;;;;;;;;;5055072;28;20211;-61
2022/10/03 06:34:28;;;;;;;10.02;5.57;;;;;;;;;;5055519;28;20188;-61
2022/10/03 06:37:25;;;;;;;10.07;5.68;;;;;;;;;;5054503;28;20220;-61
2022/10/03 06:40:04;;;;;;;9.27;5.95;;;;;;;;;;5034752;28;20218;-61
2022/10/03 06:42:54;;;;;;;12.02;6.72;;;;;;;;;;5055417;28;20533;-61
2022/10/03 06:46:12;;;;;;;10.55;6.95;;;;;;;;;;5055261;28;20638;-61
2022/10/03 06:48:48;;;;;;;7.53;5.05;;;;;;;;;;4997774;28;20256;-61
2022/10/03 06:51:41;;;;;;;10.60;6.50;;;;;;;;;;5013911;28;20264;-61
2022/10/03 06:54:21;;;;;;;8.32;5.57;;;;;;;;;;5011368;28;20251;-61
2022/10/03 06:57:09;;;;;;;9.90;6.38;;;;;;;;;;4997516;28;20220;-61
2022/10/03 07:00:07;;;;;;;9.52;6.15;;;;;;;;;;5013905;28;20201;-61
2022/10/03 07:02:56;;;;;;;13.38;5.90;;;;;;;;;;4997271;28;20202;-61
2022/10/03 07:05:52;;;;;;;14.15;6.32;;;;;;;;;;5013995;28;20214;-61
2022/10/03 07:08:57;;;;;;;10.90;5.57;;;;;;;;;;5013660;28;20583;-61
2022/10/03 07:11:38;;;;;;;10.48;5.63;;;;;;;;;;5013517;28;20591;-61
2022/10/03 07:14:27;;;;;;;10.32;6.20;;;;;;;;;;5013642;28;20256;-61
2022/10/03 07:17:14;;;;;;;7.32;5.10;;;;;;;;;;4997161;28;20691;-61
2022/10/03 07:20:09;;;;;;;11.32;6.10;;;;;;;;;;5013686;28;20201;-61
2022/10/03 07:22:56;;;;;;;8.60;4.95;;;;;;;;;;5013707;28;20209;-61
2022/10/03 07:25:29;;;;;;;7.47;4.35;;;;;;;;;;5009586;28;20207;-61
2022/10/03 07:27:58;;;;;;;11.05;5.25;;;;;;;;;;5054816;28;20283;-61
2022/10/03 07:30:31;;;;;;;5.43;4.03;;;;;;;;;;5054868;28;20213;-61
2022/10/03 07:33:28;;;;;;;7.43;4.70;;;;;;;;;;5053934;28;20302;-61
2022/10/03 07:39:20;;;;;;;5.82;3.55;;;;;;;;;;5053577;28;20618;-61
2022/10/03 07:41:59;;;;;;;8.00;4.07;;;;;;;;;;5054548;28;20516;-61
2022/10/03 07:44:49;;;;;;;4.75;3.47;;;;;;;;;;5053681;28;20192;-61
2022/10/03 07:47:44;;;;;;;4.53;3.40;;;;;;;;;;5054769;28;20193;-61
2022/10/03 07:50:26;;;;;;;4.88;3.05;;;;;;;;;;5053713;28;20584;-61
2022/10/03 07:53:10;;;;;;;8.13;4.53;;;;;;;;;;5054791;28;20633;-61
2022/10/03 07:55:49;;;;;;;5.22;3.35;;;;;;;;;;5054538;28;20273;-61
2022/10/03 07:58:47;;;;;;;9.25;3.90;;;;;;;;;;5054186;28;20227;-61
2022/10/03 08:01:24;;;;;;;9.93;4.75;;;;;;;;;;5053690;28;20214;-61
2022/10/03 08:04:05;;;;;;;4.55;3.15;;;;;;;;;;5053670;28;20206;-61
2022/10/03 08:07:02;;;;;;;5.47;3.20;;;;;;;;;;5054200;28;21196;-61
2022/10/03 08:09:38;;;;;;;5.43;3.28;;;;;;;;;;5042857;28;20204;-61
2022/10/03 08:12:19;;;;;;;6.72;3.88;;;;;;;;;;5057372;28;20261;-61
2022/10/03 08:15:08;;;;;;;4.47;3.90;;;;;;;;;;5057522;28;20200;-61
2022/10/03 08:17:44;;;;;;;6.13;3.55;;;;;;;;;;5057511;28;20196;-61
2022/10/03 08:20:22;;;;;;;10.27;4.97;;;;;;;;;;5058495;28;20183;-61
2022/10/03 08:23:10;;;;;;;5.90;3.97;;;;;;;;;;5057969;28;20188;-61
2022/10/03 08:26:10;;;;;;;6.63;4.05;;;;;;;;;;5058385;28;20192;-61
2022/10/03 08:28:49;;;;;;;9.88;4.90;;;;;;;;;;5057924;28;20181;-61
2022/10/03 08:31:29;;;;;;;6.25;3.55;;;;;;;;;;5057947;28;20269;-62
2022/10/03 08:34:32;;;;;;;10.73;5.05;;;;;;;;;;5058151;28;20576;-61
2022/10/03 08:37:27;;;;;;;5.65;3.78;;;;;;;;;;5056888;28;20227;-61
2022/10/03 08:40:16;;;;;;;4.97;3.35;;;;;;;;;;5057707;28;20654;-61
2022/10/03 08:43:05;;;;;;;4.78;3.67;;;;;;;;;;5058130;28;20200;-61
2022/10/03 08:46:09;;;;;;;7.18;4.00;;;;;;;;;;5057588;28;20188;-61
2022/10/03 08:48:47;;;;;;;7.57;4.00;;;;;;;;;;5057719;28;20204;-61
2022/10/03 08:51:26;;;;;;;5.30;3.92;;;;;;;;;;5057820;28;20569;-61
2022/10/03 08:54:01;;;;;;;6.32;3.95;;;;;;;;;;5057604;28;20287;-62
2022/10/03 08:56:45;;;;;;;4.97;4.15;;;;;;;;;;5040698;28;20298;-61
2022/10/03 08:59:46;;;;;;;5.40;4.20;;;;;;;;;;5056540;28;20200;-61
2022/10/03 09:02:42;;;;;;;8.50;4.90;;;;;;;;;;5056270;28;20266;-61
2022/10/03 09:05:12;;;;;;;6.82;4.35;;;;;;;;;;5056669;28;20222;-61
2022/10/03 09:07:51;;;;;;;9.13;3.97;;;;;;;;;;5057093;28;20643;-61
2022/10/03 09:10:21;;;;;;;5.22;3.83;;;;;;;;;;5057250;28;20207;-61
2022/10/03 09:13:13;;;;;;;6.28;3.70;;;;;;;;;;5057006;28;20279;-61
2022/10/03 09:15:58;;;;;;;5.43;3.55;;;;;;;;;;5056068;28;20239;-61
2022/10/03 09:18:50;;;;;;;4.80;3.13;;;;;;;;;;5056225;28;20290;-61
2022/10/03 09:22:02;;;;;;;7.05;4.53;;;;;;;;;;5056931;28;20193;-61
2022/10/03 09:25:02;;;;;;;6.85;3.75;;;;;;;;;;5051695;28;20290;-61
2022/10/03 09:27:41;;;;;;;6.93;4.03;;;;;;;;;;5039768;28;20517;-61
2022/10/03 09:30:36;;;;;;;6.32;4.20;;;;;;;;;;5056709;28;20283;-61
2022/10/03 09:33:03;;;;;;;6.50;3.55;;;;;;;;;;5057074;28;20215;-61
2022/10/03 09:35:50;;;;;;;5.25;3.15;;;;;;;;;;5056833;28;20212;-61
2022/10/03 09:38:38;;;;;;;5.55;3.30;;;;;;;;;;5056046;28;20195;-61
2022/10/03 09:41:43;;;;;;;4.45;3.03;;;;;;;;;;5057119;28;20196;-61
2022/10/03 09:44:41;;;;;;;3.17;2.50;;;;;;;;;;5056648;28;20219;-61
2022/10/03 09:47:31;;;;;;;6.78;3.75;;;;;;;;;;5056678;28;20218;-61
2022/10/03 09:50:36;;;;;;;3.53;2.47;;;;;;;;;;5055586;28;20204;-61
2022/10/03 09:53:11;;;;;;;6.38;3.25;;;;;;;;;;5056763;28;20517;-61
2022/10/03 09:56:09;;;;;;;5.93;2.70;;;;;;;;;;5055687;28;20188;-61
2022/10/03 09:58:48;;;;;;;3.65;2.50;;;;;;;;;;5056640;28;20243;-61
2022/10/03 10:01:33;;;;;;;4.28;2.80;;;;;;;;;;5056110;28;20199;-61
2022/10/03 10:04:38;;;;;;;5.78;2.60;;;;;;;;;;5055633;28;20212;-61
2022/10/03 10:07:51;;;;;;;4.32;2.67;;;;;;;;;;5042174;28;20223;-61
2022/10/03 10:10:24;;;;;;;8.60;3.90;;;;;;;;;;5071624;28;20635;-61
2022/10/03 10:13:29;;;;;;;3.65;2.90;;;;;;;;;;5056192;28;20188;-61
2022/10/03 10:16:24;;;;;;;5.65;2.53;;;;;;;;;;5056138;28;20269;-61
2022/10/03 10:19:29;;;;;;;4.13;2.78;;;;;;;;;;5056238;28;20207;-61
2022/10/03 10:21:59;;;;;;;5.20;2.10;;;;;;;;;;5055983;28;20269;-61
2022/10/03 10:24:45;;;;;;;4.30;2.75;;;;;;;;;;5056486;28;20245;-61
2022/10/03 10:27:47;;;;;;;4.90;2.75;;;;;;;;;;5054803;28;20646;-61
2022/10/03 10:30:42;;;;;;;5.68;2.42;;;;;;;;;;5013733;28;20224;-61
2022/10/03 10:33:39;;;;;;;4.57;2.50;;;;;;;;;;5055549;28;20204;-61
2022/10/03 10:36:21;;;;;;;3.30;2.20;;;;;;;;;;5054761;28;20227;-61
2022/10/03 10:39:14;;;;;;;3.83;2.60;;;;;;;;;;5055941;28;20203;-61
2022/10/03 10:42:06;;;;;;;4.78;2.47;;;;;;;;;;5055371;28;20266;-61
2022/10/03 10:45:04;;;;;;;4.55;2.72;;;;;;;;;;5054721;28;20197;-61
2022/10/03 10:48:02;;;;;;;3.00;2.58;;;;;;;;;;5055018;28;20200;-61
2022/10/03 10:50:49;;;;;;;4.63;2.67;;;;;;;;;;5054564;28;20200;-61
2022/10/03 10:53:53;;;;;;;5.05;3.35;;;;;;;;;;5055494;28;20322;-61
2022/10/03 10:56:42;;;;;;;13.18;8.95;;;;;;;;;;5054351;28;20273;-61
2022/10/03 10:59:47;;;;;;;4.30;3.28;;;;;;;;;;5054491;28;20207;-61
2022/10/03 11:02:36;;;;;;;4.85;3.10;;;;;;;;;;5055132;28;20211;-61
2022/10/03 11:05:28;;;;;;;5.10;3.22;;;;;;;;;;5054122;28;20254;-61
2022/10/03 11:08:33;;;;;;;6.35;3.40;;;;;;;;;;5055175;28;20192;-61
2022/10/03 11:11:19;;;;;;;7.57;4.38;;;;;;;;;;5055291;28;20200;-61
2022/10/03 11:13:58;;;;;;;7.43;3.15;;;;;;;;;;5055014;28;20197;-61
2022/10/03 11:16:53;;;;;;;5.45;4.05;;;;;;;;;;5055118;28;20207;-61
2022/10/03 11:19:32;;;;;;;5.97;3.22;;;;;;;;;;5055339;28;20184;-61
2022/10/03 11:22:24;;;;;;;7.35;3.53;;;;;;;;;;5054945;28;20192;-61
2022/10/03 11:25:28;;;;;;;2.72;1.90;;;;;;;;;;5053935;28;20696;-61
2022/10/03 11:28:15;;;;;;;2.50;2.03;;;;;;;;;;5054640;28;20526;-61
2022/10/03 11:31:14;;;;;;;6.30;2.33;;;;;;;;;;5054629;28;20206;-61
2022/10/03 11:34:20;;;;;;;2.50;2.10;;;;;;;;;;5053910;28;20219;-61
2022/10/03 11:36:52;;;;;;;3.35;1.98;;;;;;;;;;5052774;28;20344;-61
2022/10/03 11:39:42;;;;;;;3.40;2.75;;;;;;;;;;5053904;28;20219;-61
2022/10/03 11:42:32;;;;;;;4.28;2.00;;;;;;;;;;5056498;28;20200;-62
2022/10/03 11:45:15;;;;;;;4.32;2.80;;;;;;;;;;5058644;28;20199;-61
2022/10/03 11:47:44;;;;;;;3.50;2.10;;;;;;;;;;5058169;28;20192;-61
2022/10/03 11:50:28;;;;;;;3.45;2.20;;;;;;;;;;5055714;28;20222;-61
2022/10/03 11:53:00;;;;;;;3.13;2.22;;;;;;;;;;5057302;28;20184;-62
2022/10/03 11:55:38;;;;;;;3.47;2.55;;;;;;;;;;5057284;28;20180;-61
2022/10/03 11:58:17;;;;;;;3.33;2.30;;;;;;;;;;5057700;28;20590;-62
2022/10/03 12:00:49;;;;;;;3.22;2.28;;;;;;;;;;5057856;28;20497;-61
2022/10/03 12:03:29;;;;;;;3.47;2.15;;;;;;;;;;5056834;28;20184;-63
2022/10/03 12:09:16;;;;;;;4.15;2.47;;;;;;;;;;5057185;28;20517;-62
2022/10/03 12:12:01;;;;;;;3.97;2.42;;;;;;;;;;5055754;28;20192;-61
2022/10/03 12:14:45;;;;;;;3.70;1.10;;;;;;;;;;5056947;28;20617;-62
2022/10/03 12:17:24;;;;;;;1.27;1.05;;;;;;;;;;5045254;28;20220;-63
2022/10/03 12:20:04;;;;;;;0.80;0.75;;;;;;;;;;5053504;28;20203;-63
2022/10/03 12:22:49;;;;;;;2.70;0.60;;;;;;;;;;5054043;28;20267;-63
2022/10/03 12:25:29;;;;;;;2.25;0.73;;;;;;;;;;5053234;28;20241;-63
2022/10/03 12:28:11;;;;;;;2.22;0.98;;;;;;;;;;5053856;28;20249;-63
2022/10/03 12:30:46;;;;;;;1.05;0.70;;;;;;;;;;5047841;28;20196;-64
2022/10/03 12:33:50;;;;;;;3.17;1.00;;;;;;;;;;5053775;28;20947;-63
2022/10/03 12:36:36;;;;;;;2.65;0.80;;;;;;;;;;5053326;28;20187;-63
2022/10/03 12:39:22;;;;;;;1.23;0.73;;;;;;;;;;5048273;28;20258;-64
2022/10/03 12:42:01;;;;;;;0.75;0.70;;;;;;;;;;5050657;28;20268;-65
2022/10/03 12:44:29;;;;;;;2.80;0.90;;;;;;;;;;5049925;28;20216;-64
2022/10/03 12:47:13;;;;;;;1.38;0.75;;;;;;;;;;5053269;28;20309;-65
2022/10/03 12:50:00;;;;;;;1.90;0.77;;;;;;;;;;5048395;28;20707;-64
2022/10/03 12:52:30;;;;;;;1.83;0.90;;;;;;;;;;5051180;28;20977;-63
2022/10/03 12:54:58;;;;;;;18.25;1.52;;;;;;;;;;5049052;28;20667;-63
2022/10/03 12:57:44;;;;;;;4.95;1.00;;;;;;;;;;5052249;28;20274;-63
2022/10/03 13:00:35;;;;;;;2.63;1.00;;;;;;;;;;5052435;28;20565;-63
2022/10/03 13:03:16;;;;;;;3.17;1.15;;;;;;;;;;5051980;28;20228;-64
2022/10/03 13:05:48;;;;;;;5.13;1.20;;;;;;;;;;5052395;28;20235;-63
2022/10/03 13:08:39;;;;;;;5.30;1.25;;;;;;;;;;5051199;28;20228;-64
2022/10/03 13:11:31;;;;;;;2.28;0.95;;;;;;;;;;5050673;28;20231;-64
2022/10/03 13:14:23;;;;;;;7.68;1.17;;;;;;;;;;5053805;28;20223;-65
2022/10/03 13:17:16;;;;;;;3.13;1.02;;;;;;;;;;5047868;28;20295;-65
2022/10/03 13:19:57;;;;;;;4.15;1.10;;;;;;;;;;5051728;28;20234;-64
2022/10/03 13:23:11;;;;;;;3.75;0.98;;;;;;;;;;5047255;28;20231;-63
2022/10/03 13:25:46;;;;;;;1.70;1.00;;;;;;;;;;5051069;28;20302;-64
2022/10/03 13:28:30;;;;;;;6.82;1.20;;;;;;;;;;5048255;28;20570;-63
2022/10/03 13:31:15;;;;;;;3.72;1.10;;;;;;;;;;5051792;28;20223;-65
2022/10/03 13:33:53;;;;;;;2.70;1.15;;;;;;;;;;5054750;28;20560;-62
2022/10/03 13:36:38;;;;;;;2.60;1.30;;;;;;;;;;5055726;28;20224;-62
2022/10/03 13:39:13;;;;;;;4.60;1.30;;;;;;;;;;5051831;28;20654;-63
2022/10/03 13:41:49;;;;;;;1.73;1.48;;;;;;;;;;5051549;28;20227;-62
2022/10/03 13:44:21;;;;;;;7.38;1.05;;;;;;;;;;5046029;28;20232;-63
2022/10/03 13:47:25;;;;;;;2.05;1.48;;;;;;;;;;5048319;28;20277;-63
2022/10/03 13:50:00;;;;;;;2.78;1.23;;;;;;;;;;5054527;28;20724;-64
2022/10/03 13:52:44;;;;;;;1.05;0.95;;;;;;;;;;5053189;28;20229;-63
2022/10/03 13:55:34;;;;;;;2.35;1.13;;;;;;;;;;5050701;28;20251;-63
2022/10/03 13:58:38;;;;;;;2.97;1.10;;;;;;;;;;5052384;28;20575;-63
2022/10/03 14:01:35;;;;;;;1.88;1.10;;;;;;;;;;5052346;28;20216;-64
2022/10/03 14:04:47;;;;;;;2.25;1.10;;;;;;;;;;5052330;28;20662;-63
2022/10/03 14:07:17;;;;;;;1.92;1.10;;;;;;;;;;5010435;28;20220;-63
2022/10/03 14:10:15;;;;;;;1.27;1.10;;;;;;;;;;5008849;28;20217;-63
2022/10/03 14:12:58;;;;;;;1.80;1.13;;;;;;;;;;5011344;28;20229;-64
2022/10/03 14:15:36;;;;;;;1.35;0.98;;;;;;;;;;4995250;28;20308;-63
2022/10/03 14:18:16;;;;;;;4.63;1.13;;;;;;;;;;5008388;28;20241;-62
2022/10/03 14:20:52;;;;;;;6.25;1.20;;;;;;;;;;4993283;28;20287;-63
2022/10/03 14:23:28;;;;;;;2.50;1.38;;;;;;;;;;5010807;28;20247;-63
2022/10/03 14:26:28;;;;;;;2.13;1.25;;;;;;;;;;4996596;28;20233;-62
2022/10/03 14:29:09;;;;;;;3.75;1.23;;;;;;;;;;5001178;28;20230;-61
2022/10/03 14:31:47;;;;;;;2.50;1.10;;;;;;;;;;5012705;28;20225;-62
2022/10/03 14:34:28;;;;;;;1.60;1.10;;;;;;;;;;5013153;28;20237;-62
2022/10/03 14:37:17;;;;;;;2.75;1.02;;;;;;;;;;5012581;28;20228;-63
2022/10/03 14:40:00;;;;;;;2.88;1.25;;;;;;;;;;5012991;28;20228;-62
2022/10/03 14:42:33;;;;;;;4.40;1.50;;;;;;;;;;5009371;28;20211;-64
2022/10/03 14:45:08;;;;;;;8.35;1.23;;;;;;;;;;5049535;28;20291;-63
2022/10/03 14:47:39;;;;;;;2.42;0.98;;;;;;;;;;5034412;28;20257;-63
2022/10/03 14:50:15;;;;;;;4.45;1.52;;;;;;;;;;5052733;28;20188;-63
2022/10/03 14:52:45;;;;;;;6.25;1.70;;;;;;;;;;5048343;28;20282;-65
2022/10/03 14:55:22;;;;;;;1.60;1.25;;;;;;;;;;5051895;28;20200;-66
2022/10/03 14:58:09;;;;;;;5.00;1.70;;;;;;;;;;5050779;28;20242;-64
2022/10/03 15:00:44;;;;;;;4.28;1.40;;;;;;;;;;5035773;28;20207;-64
2022/10/03 15:03:15;;;;;;;1.83;1.38;;;;;;;;;;5049983;28;20251;-65
2022/10/03 15:06:09;;;;;;;3.63;1.40;;;;;;;;;;5051081;28;20281;-63
2022/10/03 15:08:42;;;;;;;2.55;1.50;;;;;;;;;;5032644;28;20228;-63
2022/10/03 15:11:12;;;;;;;4.75;1.90;;;;;;;;;;5052604;28;20239;-64
2022/10/03 15:13:43;;;;;;;2.95;1.48;;;;;;;;;;5033329;28;20225;-64
2022/10/03 15:16:15;;;;;;;4.38;1.45;;;;;;;;;;5051296;28;20224;-64
2022/10/03 15:18:51;;;;;;;3.15;1.70;;;;;;;;;;5051144;28;20240;-64
2022/10/03 15:21:20;;;;;;;11.50;2.08;;;;;;;;;;5050305;28;20243;-64
2022/10/03 15:23:58;;;;;;;4.55;1.70;;;;;;;;;;5033263;28;20225;-64
2022/10/03 15:26:27;;;;;;;2.72;1.77;;;;;;;;;;5035333;28;20666;-66
2022/10/03 15:28:58;;;;;;;3.35;1.90;;;;;;;;;;5053773;28;20295;-64
2022/10/03 15:31:44;;;;;;;3.55;1.73;;;;;;;;;;5052832;28;20230;-65
2022/10/03 15:34:16;;;;;;;5.45;1.80;;;;;;;;;;5052469;28;20642;-64
2022/10/03 15:36:54;;;;;;;4.68;1.73;;;;;;;;;;5053379;28;20235;-64
2022/10/03 15:39:35;;;;;;;3.67;1.50;;;;;;;;;;5052878;28;20228;-63
2022/10/03 15:42:08;;;;;;;3.58;1.70;;;;;;;;;;5053128;28;20269;-66
2022/10/03 15:44:50;;;;;;;5.97;2.40;;;;;;;;;;5053631;28;20312;-65
2022/10/03 15:47:22;;;;;;;9.38;2.08;;;;;;;;;;5051563;28;20650;-64
2022/10/03 15:49:58;;;;;;;3.08;1.60;;;;;;;;;;5052037;28;20239;-64
2022/10/03 15:52:33;;;;;;;3.83;1.73;;;;;;;;;;5052557;28;20231;-64
2022/10/03 15:55:03;;;;;;;6.22;1.95;;;;;;;;;;5052640;28;20305;-65
2022/10/03 15:57:43;;;;;;;4.50;1.98;;;;;;;;;;5052804;28;20243;-64
2022/10/03 16:00:20;;;;;;;3.53;2.00;;;;;;;;;;5052502;28;20223;-64
2022/10/03 16:02:52;;;;;;;3.10;2.05;;;;;;;;;;5052538;28;20223;-64
2022/10/03 16:05:23;;;;;;;5.10;2.50;;;;;;;;;;5051423;28;20254;-64
2022/10/03 16:07:53;;;;;;;6.10;2.10;;;;;;;;;;5053095;28;20282;-64
2022/10/03 16:10:23;;;;;;;9.25;2.33;;;;;;;;;;5052410;28;20576;-64
2022/10/03 16:13:11;;;;;;;3.55;2.10;;;;;;;;;;5052575;28;20303;-63
2022/10/03 16:15:42;;;;;;;4.38;2.05;;;;;;;;;;5051241;28;20693;-63
2022/10/03 16:18:18;;;;;;;8.55;2.20;;;;;;;;;;5043220;28;20232;-63
2022/10/03 16:20:56;;;;;;;4.65;2.25;;;;;;;;;;5052546;28;20266;-63
2022/10/03 16:23:28;;;;;;;5.25;2.33;;;;;;;;;;5052260;28;20220;-63
2022/10/03 16:26:05;;;;;;;4.80;2.30;;;;;;;;;;5051924;28;20301;-64
2022/10/03 16:28:39;;;;;;;6.95;2.35;;;;;;;;;;5054285;28;20646;-63
2022/10/03 16:31:27;;;;;;;4.03;2.22;;;;;;;;;;5055496;28;20277;-64
2022/10/03 16:34:12;;;;;;;7.50;2.75;;;;;;;;;;5057029;28;20216;-62
2022/10/03 16:36:42;;;;;;;6.57;2.95;;;;;;;;;;5055715;28;20735;-63